createdAt,value
2023-04-20T00:01:57.121Z,5.55
2023-04-20T00:04:23.826Z,5.35
2023-04-20T00:06:51.783Z,5.63
2023-04-20T00:09:19.230Z,5.18
2023-04-20T00:11:46.002Z,4.80
2023-04-20T00:14:12.656Z,5.40
2023-04-20T00:16:39.454Z,4.95
2023-04-20T00:19:07.732Z,4.90
2023-04-20T00:21:35.650Z,5.57
2023-04-20T00:24:02.223Z,5.57
2023-04-20T00:26:28.900Z,5.43
2023-04-20T00:28:55.524Z,5.28
2023-04-20T00:31:22.262Z,5.05
2023-04-20T00:33:49.149Z,5.03
2023-04-20T00:36:15.937Z,4.75
2023-04-20T00:38:42.568Z,4.90
2023-04-20T00:41:09.130Z,5.07
2023-04-20T00:43:36.100Z,5.30
2023-04-20T00:46:03.882Z,5.80
2023-04-20T00:48:30.649Z,5.07
2023-04-20T00:50:57.400Z,5.15
2023-04-20T00:53:24.021Z,5.00
2023-04-20T00:55:51.003Z,5.00
2023-04-20T00:58:17.597Z,4.55
2023-04-20T01:00:44.409Z,4.43
2023-04-20T01:03:11.292Z,4.30
2023-04-20T01:05:38.065Z,3.65
2023-04-20T01:08:04.809Z,4.40
2023-04-20T01:10:31.418Z,4.00
2023-04-20T01:12:58.287Z,4.28
2023-04-20T01:15:24.945Z,4.47
2023-04-20T01:17:52.517Z,3.85
2023-04-20T01:20:20.621Z,4.50
2023-04-20T01:22:49.176Z,4.20
2023-04-20T01:25:16.682Z,4.60
2023-04-20T01:27:43.614Z,4.03
2023-04-20T01:30:11.204Z,4.00
2023-04-20T01:32:38.285Z,4.18
2023-04-20T01:35:05.980Z,4.70
2023-04-20T01:37:32.842Z,4.47
2023-04-20T01:39:59.613Z,3.92
2023-04-20T01:42:26.455Z,4.47
2023-04-20T01:44:53.060Z,3.88
2023-04-20T01:47:19.710Z,4.07
2023-04-20T01:49:46.310Z,4.43
2023-04-20T01:52:12.965Z,4.15
2023-04-20T01:54:39.585Z,4.38
2023-04-20T01:57:06.192Z,5.68
2023-04-20T01:59:32.772Z,4.47
2023-04-20T02:01:59.512Z,4.72
2023-04-20T02:04:26.162Z,4.22
2023-04-20T02:06:52.778Z,4.75
2023-04-20T02:09:19.665Z,4.68
2023-04-20T02:11:46.368Z,4.43
2023-04-20T02:14:13.020Z,4.68
2023-04-20T02:16:39.711Z,4.57
2023-04-20T02:19:06.934Z,3.03
2023-04-20T02:21:33.668Z,3.60
2023-04-20T02:24:01.395Z,3.40
2023-04-20T02:26:28.013Z,2.47
2023-04-20T02:28:54.676Z,2.92
2023-04-20T02:31:21.369Z,3.17
2023-04-20T02:33:49.993Z,2.95
2023-04-20T02:36:16.724Z,3.90
2023-04-20T02:38:43.356Z,3.13
2023-04-20T02:41:09.947Z,4.13
2023-04-20T02:43:36.652Z,4.35
2023-04-20T02:46:03.292Z,4.70
2023-04-20T02:48:29.964Z,5.32
2023-04-20T02:50:57.292Z,4.43
2023-04-20T02:53:24.072Z,3.70
2023-04-20T02:55:50.782Z,4.47
2023-04-20T02:58:17.730Z,5.38
2023-04-20T03:00:44.348Z,4.60
2023-04-20T03:03:11.294Z,4.00
2023-04-20T03:05:38.033Z,4.70
2023-04-20T03:08:07.022Z,5.03
2023-04-20T03:10:33.897Z,4.72
2023-04-20T03:13:00.615Z,4.88
2023-04-20T03:15:27.334Z,4.35
2023-04-20T03:17:54.060Z,4.20
2023-04-20T03:20:20.727Z,4.72
2023-04-20T03:22:47.388Z,5.10
2023-04-20T03:25:14.124Z,4.18
2023-04-20T03:27:40.931Z,4.82
2023-04-20T03:30:08.612Z,4.65
2023-04-20T03:32:35.584Z,5.07
2023-04-20T03:35:02.303Z,4.85
2023-04-20T03:37:28.925Z,5.32
2023-04-20T03:39:55.668Z,5.57
2023-04-20T03:42:22.350Z,5.20
2023-04-20T03:44:49.020Z,5.15
2023-04-20T03:47:15.782Z,5.00
2023-04-20T03:49:42.438Z,5.03
2023-04-20T03:52:09.207Z,5.53
2023-04-20T03:54:35.987Z,5.45
2023-04-20T03:57:02.651Z,6.25
2023-04-20T03:59:29.405Z,5.80
2023-04-20T04:01:56.718Z,5.82
2023-04-20T04:04:23.702Z,5.43
2023-04-20T04:06:50.708Z,6.65
2023-04-20T04:09:17.561Z,6.75
2023-04-20T04:11:44.346Z,6.75
2023-04-20T04:14:11.022Z,6.00
2023-04-20T04:16:37.769Z,5.63
2023-04-20T04:19:04.465Z,6.18
2023-04-20T04:21:31.038Z,5.70
2023-04-20T04:23:57.772Z,4.82
2023-04-20T04:26:24.846Z,6.35
2023-04-20T04:28:51.878Z,5.55
2023-04-20T04:31:19.677Z,5.80
2023-04-20T04:33:46.586Z,5.78
2023-04-20T04:36:15.353Z,6.95
2023-04-20T04:38:45.234Z,7.20
2023-04-20T04:41:15.834Z,7.45
2023-04-20T04:43:43.211Z,7.78
2023-04-20T04:46:11.080Z,6.90
2023-04-20T04:48:38.323Z,7.40
2023-04-20T04:51:05.055Z,7.80
2023-04-20T04:53:31.672Z,7.80
2023-04-20T04:55:58.297Z,7.53
2023-04-20T04:58:25.136Z,7.43
2023-04-20T05:00:51.816Z,7.85
2023-04-20T05:03:18.687Z,7.32
2023-04-20T05:05:45.716Z,7.90
2023-04-20T05:08:12.451Z,7.22
2023-04-20T05:10:39.109Z,7.28
2023-04-20T05:13:05.840Z,7.32
2023-04-20T05:15:32.678Z,7.22
2023-04-20T05:17:59.357Z,6.38
2023-04-20T05:20:26.197Z,7.95
2023-04-20T05:22:52.886Z,8.15
2023-04-20T05:25:19.529Z,8.77
2023-04-20T05:27:46.327Z,9.32
2023-04-20T05:30:21.471Z,9.15
2023-04-20T05:32:51.570Z,7.97
2023-04-20T05:35:19.272Z,9.35
2023-04-20T05:37:47.706Z,9.52
2023-04-20T05:40:15.837Z,9.13
2023-04-20T05:42:42.511Z,10.05
2023-04-20T05:45:09.896Z,10.57
2023-04-20T05:47:36.585Z,9.57
2023-04-20T05:50:03.768Z,9.77
2023-04-20T05:52:30.358Z,8.40
2023-04-20T05:54:59.557Z,10.55
2023-04-20T05:57:26.274Z,10.32
2023-04-20T05:59:53.136Z,11.48
2023-04-20T06:02:19.813Z,8.98
2023-04-20T06:04:46.798Z,10.32
2023-04-20T06:07:13.478Z,10.73
2023-04-20T06:09:40.210Z,10.20
2023-04-20T06:12:07.062Z,10.48
2023-04-20T06:14:33.730Z,12.88
2023-04-20T06:17:00.364Z,12.65
2023-04-20T06:19:27.080Z,12.75
2023-04-20T06:21:53.758Z,13.65
2023-04-20T06:24:20.351Z,12.88
2023-04-20T06:26:46.944Z,11.18
2023-04-20T06:29:13.552Z,12.35
2023-04-20T06:31:40.346Z,10.75
2023-04-20T06:34:07.049Z,10.93
2023-04-20T06:36:33.729Z,10.60
2023-04-20T06:39:00.462Z,11.82
2023-04-20T06:41:27.115Z,12.20
2023-04-20T06:43:56.046Z,12.68
2023-04-20T06:46:22.806Z,14.63
2023-04-20T06:48:49.455Z,13.73
2023-04-20T06:51:16.404Z,15.00
2023-04-20T06:53:43.047Z,15.55
2023-04-20T06:56:09.866Z,17.35
2023-04-20T06:58:36.516Z,17.33
2023-04-20T07:01:03.226Z,19.30
2023-04-20T07:03:30.421Z,19.88
2023-04-20T07:05:57.286Z,19.98
2023-04-20T07:08:23.957Z,21.50
2023-04-20T07:10:50.754Z,21.38
2023-04-20T07:13:17.364Z,20.83
2023-04-20T07:15:45.945Z,21.52
2023-04-20T07:18:12.707Z,22.20
2023-04-20T07:20:39.588Z,21.77
2023-04-20T07:23:06.567Z,20.55
2023-04-20T07:25:33.314Z,22.48
2023-04-20T07:28:00.207Z,21.05
2023-04-20T07:30:27.296Z,20.92
2023-04-20T07:32:54.329Z,18.52
2023-04-20T07:35:21.488Z,20.27
2023-04-20T07:37:48.473Z,18.83
2023-04-20T07:40:17.112Z,18.98
2023-04-20T07:42:44.154Z,17.87
2023-04-20T07:45:11.744Z,18.23
2023-04-20T07:47:39.122Z,18.15
2023-04-20T07:50:07.417Z,18.08
2023-04-20T07:52:34.826Z,19.65
2023-04-20T07:55:01.779Z,19.88
2023-04-20T07:57:29.428Z,17.95
2023-04-20T07:59:56.396Z,19.55
2023-04-20T08:02:23.197Z,21.90
2023-04-20T08:04:50.326Z,21.73
2023-04-20T08:07:17.812Z,20.50
2023-04-20T08:09:44.633Z,20.35
2023-04-20T08:12:11.412Z,21.75
2023-04-20T08:14:38.373Z,20.80
2023-04-20T08:17:05.128Z,20.65
2023-04-20T08:19:31.810Z,18.50
2023-04-20T08:21:59.355Z,17.35
2023-04-20T08:24:27.076Z,17.67
2023-04-20T08:26:53.706Z,16.75
2023-04-20T08:29:20.379Z,16.25
2023-04-20T08:31:48.522Z,16.67
2023-04-20T08:34:16.152Z,16.45
2023-04-20T08:36:44.055Z,15.90
2023-04-20T08:39:14.850Z,15.75
2023-04-20T08:41:41.538Z,15.30
2023-04-20T08:44:08.477Z,13.82
2023-04-20T08:46:35.530Z,14.57
2023-04-20T08:49:05.175Z,14.85
2023-04-20T08:51:32.675Z,11.57
2023-04-20T08:54:06.318Z,12.13
2023-04-20T08:56:40.498Z,13.90
2023-04-20T08:59:10.303Z,13.30
2023-04-20T09:01:41.622Z,12.90
2023-04-20T09:04:20.545Z,13.52
2023-04-20T09:06:52.630Z,13.90
2023-04-20T09:09:24.365Z,12.60
2023-04-20T09:12:04.407Z,12.82
2023-04-20T09:14:41.948Z,14.35
2023-04-20T09:17:08.568Z,14.02
2023-04-20T09:19:35.309Z,13.65
2023-04-20T09:22:06.627Z,13.35
2023-04-20T09:24:35.257Z,14.25
2023-04-20T09:27:03.654Z,14.23
2023-04-20T09:29:30.416Z,15.50
2023-04-20T09:31:57.152Z,15.25
2023-04-20T09:34:24.739Z,15.27
2023-04-20T09:36:54.757Z,14.07
2023-04-20T09:39:24.835Z,13.93
2023-04-20T09:41:52.539Z,13.63
2023-04-20T09:44:20.157Z,13.65
2023-04-20T09:46:47.149Z,12.70
2023-04-20T09:49:14.973Z,12.88
2023-04-20T09:51:46.682Z,12.90
2023-04-20T09:54:15.954Z,12.10
2023-04-20T09:56:43.227Z,12.30
2023-04-20T09:59:09.822Z,11.68
2023-04-20T10:01:38.186Z,12.13
2023-04-20T10:04:09.810Z,10.40
2023-04-20T10:06:37.787Z,12.38
2023-04-20T10:09:06.639Z,11.48
2023-04-20T10:11:52.624Z,9.60
2023-04-20T10:14:23.403Z,10.75
2023-04-20T10:17:04.515Z,10.35
2023-04-20T10:19:41.734Z,9.77
2023-04-20T10:22:10.477Z,9.18
2023-04-20T10:24:40.462Z,9.70
2023-04-20T10:27:20.360Z,9.98
2023-04-20T10:29:47.434Z,8.90
2023-04-20T10:32:25.013Z,9.93
2023-04-20T10:35:08.758Z,9.25
2023-04-20T10:37:36.103Z,12.50
2023-04-20T10:40:07.328Z,9.90
2023-04-20T10:42:45.267Z,9.43
2023-04-20T10:45:13.221Z,9.90
2023-04-20T10:47:42.715Z,9.40
2023-04-20T10:52:38.143Z,8.25
2023-04-20T10:55:07.123Z,7.97
2023-04-20T10:57:33.991Z,7.63
2023-04-20T11:00:00.708Z,7.25
2023-04-20T11:02:28.610Z,6.53
2023-04-20T11:05:00.947Z,8.23
2023-04-20T11:07:27.800Z,7.75
2023-04-20T11:09:57.985Z,7.85
2023-04-20T11:12:24.618Z,7.60
2023-04-20T11:14:57.980Z,7.53
2023-04-20T11:17:38.050Z,6.80
2023-04-20T11:20:15.401Z,7.50
2023-04-20T11:22:43.766Z,6.40
2023-04-20T11:25:11.995Z,6.28
2023-04-20T11:27:39.648Z,6.80
2023-04-20T11:30:08.015Z,7.38
2023-04-20T11:32:36.637Z,6.72
2023-04-20T11:35:07.900Z,6.60
2023-04-20T11:37:51.133Z,5.85
2023-04-20T11:40:18.209Z,6.28
2023-04-20T11:42:44.860Z,6.07
2023-04-20T11:45:11.726Z,5.93
2023-04-20T11:47:41.163Z,6.75
2023-04-20T11:50:09.348Z,6.07
2023-04-20T11:52:36.232Z,5.90
2023-04-20T11:55:02.935Z,6.97
2023-04-20T11:57:29.607Z,6.80
2023-04-20T11:59:56.351Z,6.38
2023-04-20T12:02:23.111Z,6.93
2023-04-20T12:04:50.069Z,5.97
2023-04-20T12:07:16.880Z,6.88
2023-04-20T12:09:44.512Z,5.93
2023-04-20T12:12:11.286Z,6.00
2023-04-20T12:14:37.911Z,5.22
2023-04-20T12:17:05.055Z,6.03
2023-04-20T12:19:31.879Z,5.15
2023-04-20T12:21:58.543Z,6.32
2023-04-20T12:24:25.418Z,5.78
2023-04-20T12:26:52.183Z,6.00
2023-04-20T12:29:19.094Z,5.60
2023-04-20T12:31:46.374Z,6.22
2023-04-20T12:34:13.068Z,5.85
2023-04-20T12:36:39.692Z,6.32
2023-04-20T12:39:06.528Z,6.78
2023-04-20T12:41:33.427Z,7.53
2023-04-20T12:44:01.156Z,7.22
2023-04-20T12:46:29.143Z,7.83
2023-04-20T12:48:56.321Z,7.43
2023-04-20T12:51:22.928Z,8.73
2023-04-20T12:53:49.538Z,8.35
2023-04-20T12:56:16.565Z,8.68
2023-04-20T12:58:43.780Z,10.07
2023-04-20T13:01:10.479Z,9.65
2023-04-20T13:03:37.561Z,9.95
2023-04-20T13:06:05.918Z,10.32
2023-04-20T13:08:32.570Z,11.10
2023-04-20T13:10:59.332Z,11.80
2023-04-20T13:13:26.264Z,11.93
2023-04-20T13:15:56.223Z,11.70
2023-04-20T13:18:24.478Z,12.40
2023-04-20T13:20:51.296Z,12.90
2023-04-20T13:23:18.173Z,12.95
2023-04-20T13:25:44.963Z,12.45
2023-04-20T13:28:14.482Z,12.50
2023-04-20T13:30:41.580Z,13.15
2023-04-20T13:33:08.296Z,13.50
2023-04-20T13:35:35.088Z,12.40
2023-04-20T13:38:02.224Z,11.98
2023-04-20T13:40:28.890Z,12.05
2023-04-20T13:42:55.736Z,13.00
2023-04-20T13:45:22.376Z,12.07
2023-04-20T13:47:49.075Z,13.52
2023-04-20T13:50:15.750Z,12.20
2023-04-20T13:52:42.314Z,13.10
2023-04-20T13:55:09.347Z,13.40
2023-04-20T13:57:36.049Z,13.75
2023-04-20T14:00:02.984Z,13.30
2023-04-20T14:02:29.980Z,13.85
2023-04-20T14:04:56.877Z,13.77
2023-04-20T14:07:23.660Z,14.35
2023-04-20T14:09:51.047Z,13.93
2023-04-20T14:12:17.676Z,14.40
2023-04-20T14:14:44.441Z,12.98
2023-04-20T14:17:11.697Z,13.20
2023-04-20T14:19:38.429Z,12.52
2023-04-20T14:22:05.148Z,12.85
2023-04-20T14:24:31.869Z,12.68
2023-04-20T14:26:59.524Z,12.38
2023-04-20T14:29:26.180Z,12.90
2023-04-20T14:31:52.989Z,12.45
2023-04-20T14:34:20.102Z,12.48
2023-04-20T14:36:46.966Z,12.00
2023-04-20T14:39:13.584Z,12.77
2023-04-20T14:41:40.305Z,13.23
2023-04-20T14:44:06.955Z,12.98
2023-04-20T14:46:33.721Z,13.50
2023-04-20T14:49:00.371Z,12.70
2023-04-20T14:51:27.153Z,12.40
2023-04-20T14:53:53.851Z,12.80
2023-04-20T14:56:20.824Z,15.57
2023-04-20T14:58:48.049Z,13.13
2023-04-20T15:01:15.287Z,12.43
2023-04-20T15:03:42.272Z,13.40
2023-04-20T15:06:09.160Z,13.43
2023-04-20T15:08:36.032Z,12.18
2023-04-20T15:11:05.205Z,12.45
2023-04-20T15:13:31.895Z,12.18
2023-04-20T15:15:58.680Z,11.75
2023-04-20T15:18:25.326Z,11.15
2023-04-20T15:20:55.186Z,10.60
2023-04-20T15:23:22.237Z,11.50
2023-04-20T15:25:48.881Z,11.40
2023-04-20T15:28:15.772Z,11.98
2023-04-20T15:30:42.620Z,12.40
2023-04-20T15:33:09.403Z,12.15
2023-04-20T15:35:36.225Z,13.18
2023-04-20T15:38:03.672Z,13.50
2023-04-20T15:40:30.449Z,13.75
2023-04-20T15:42:57.254Z,12.93
2023-04-20T15:45:23.980Z,12.00
2023-04-20T15:47:51.631Z,12.35
2023-04-20T15:50:18.592Z,12.60
2023-04-20T15:52:45.905Z,12.60
2023-04-20T15:55:12.777Z,15.02
2023-04-20T15:57:39.430Z,15.00
2023-04-20T16:00:07.903Z,20.73
2023-04-20T16:02:34.857Z,17.10
2023-04-20T16:05:02.428Z,18.40
2023-04-20T16:07:29.312Z,17.27
2023-04-20T16:09:55.938Z,17.75
2023-04-20T16:12:22.575Z,19.52
2023-04-20T16:14:49.603Z,22.73
2023-04-20T16:17:17.057Z,21.95
2023-04-20T16:19:43.768Z,21.45
2023-04-20T16:22:10.712Z,23.40
2023-04-20T16:24:37.350Z,22.08
2023-04-20T16:27:04.036Z,22.60
2023-04-20T16:29:30.791Z,23.85
2023-04-20T16:31:57.866Z,25.13
2023-04-20T16:34:24.615Z,26.33
2023-04-20T16:36:51.235Z,23.52
2023-04-20T16:39:18.684Z,25.00
2023-04-20T16:41:45.638Z,22.55
2023-04-20T16:44:16.677Z,22.17
2023-04-20T16:46:44.268Z,23.48
2023-04-20T16:49:10.936Z,24.90
2023-04-20T16:51:37.569Z,25.70
2023-04-20T16:54:04.459Z,25.55
2023-04-20T16:56:31.261Z,26.70
2023-04-20T16:58:58.285Z,25.40
2023-04-20T17:01:25.138Z,28.15
2023-04-20T17:03:52.097Z,26.92
2023-04-20T17:06:18.847Z,28.15
2023-04-20T17:08:45.608Z,29.38
2023-04-20T17:11:13.790Z,28.70
2023-04-20T17:13:40.376Z,30.35
2023-04-20T17:16:07.054Z,31.45
2023-04-20T17:18:35.216Z,31.20
2023-04-20T17:21:02.347Z,31.50
2023-04-20T17:23:29.741Z,35.08
2023-04-20T17:25:58.285Z,32.78
2023-04-20T17:28:24.933Z,32.07
2023-04-20T17:30:51.743Z,29.83
2023-04-20T17:33:18.362Z,31.55
2023-04-20T17:35:46.541Z,30.20
2023-04-20T17:38:13.333Z,33.42
2023-04-20T17:40:39.983Z,32.00
2023-04-20T17:43:06.640Z,30.98
2023-04-20T17:45:33.352Z,30.52
2023-04-20T17:47:59.986Z,31.58
2023-04-20T17:50:26.656Z,29.52
2023-04-20T17:52:53.369Z,30.95
2023-04-20T17:55:20.819Z,29.27
2023-04-20T17:57:47.559Z,32.03
2023-04-20T18:00:14.938Z,32.22
2023-04-20T18:02:41.819Z,32.15
2023-04-20T18:05:08.832Z,32.13
2023-04-20T18:07:35.537Z,30.73
2023-04-20T18:10:02.614Z,34.53
2023-04-20T18:12:29.246Z,33.00
2023-04-20T18:14:55.972Z,33.13
2023-04-20T18:17:22.897Z,34.30
2023-04-20T18:19:49.518Z,33.28
2023-04-20T18:22:16.674Z,31.92
2023-04-20T18:24:43.778Z,31.10
2023-04-20T18:27:10.567Z,34.95
2023-04-20T18:29:37.256Z,34.88
2023-04-20T18:32:04.251Z,34.25
2023-04-20T18:34:32.272Z,33.50
2023-04-20T18:36:59.117Z,33.95
2023-04-20T18:39:26.393Z,33.33
2023-04-20T18:41:53.195Z,32.53
2023-04-20T18:44:20.176Z,32.53
2023-04-20T18:46:47.279Z,33.53
2023-04-20T18:49:14.441Z,33.58
2023-04-20T18:51:41.134Z,33.85
2023-04-20T18:54:07.942Z,34.42
2023-04-20T18:56:34.628Z,34.08
2023-04-20T18:59:01.625Z,33.17
2023-04-20T19:01:28.640Z,34.63
2023-04-20T19:03:55.733Z,35.70
2023-04-20T19:06:22.802Z,33.03
2023-04-20T19:08:52.532Z,33.03
2023-04-20T19:11:19.139Z,34.25
2023-04-20T19:13:46.001Z,31.92
2023-04-20T19:16:12.837Z,32.53
2023-04-20T19:18:39.833Z,32.20
2023-04-20T19:21:06.645Z,32.72
2023-04-20T19:23:35.756Z,33.00
2023-04-20T19:26:02.862Z,35.50
2023-04-20T19:28:30.216Z,31.55
2023-04-20T19:30:57.792Z,34.55
2023-04-20T19:33:24.554Z,32.80
2023-04-20T19:35:51.286Z,32.80
2023-04-20T19:38:19.469Z,34.08
2023-04-20T19:40:47.691Z,29.55
2023-04-20T19:43:14.526Z,32.72
2023-04-20T19:45:41.196Z,29.63
2023-04-20T19:48:08.165Z,32.15
2023-04-20T19:50:34.932Z,32.38
2023-04-20T19:53:01.774Z,30.55
2023-04-20T19:55:28.448Z,34.22
2023-04-20T19:57:55.112Z,31.80
2023-04-20T20:00:21.935Z,35.70
2023-04-20T20:02:48.838Z,36.15
2023-04-20T20:05:15.793Z,33.80
2023-04-20T20:07:42.553Z,35.05
2023-04-20T20:10:09.342Z,33.97
2023-04-20T20:12:35.984Z,32.22
2023-04-20T20:15:04.069Z,37.22
2023-04-20T20:17:30.834Z,33.20
2023-04-20T20:19:58.172Z,36.45
2023-04-20T20:22:24.915Z,35.15
2023-04-20T20:24:54.179Z,33.85
2023-04-20T20:27:21.346Z,33.65
2023-04-20T20:29:48.090Z,36.45
2023-04-20T20:32:14.809Z,35.90
2023-04-20T20:34:41.468Z,35.88
2023-04-20T20:37:34.907Z,36.88
2023-04-20T20:40:05.811Z,32.17
2023-04-20T20:42:33.739Z,34.55
2023-04-20T20:45:01.043Z,35.83
2023-04-20T20:47:27.728Z,36.83
2023-04-20T20:49:54.404Z,38.70
2023-04-20T20:52:21.179Z,36.47
2023-04-20T20:54:47.938Z,35.25
2023-04-20T20:57:14.564Z,36.60
2023-04-20T20:59:41.230Z,36.90
2023-04-20T21:02:07.900Z,36.55
2023-04-20T21:04:35.106Z,37.80
2023-04-20T21:07:01.676Z,33.70
2023-04-20T21:09:28.473Z,33.78
2023-04-20T21:11:57.650Z,35.05
2023-04-20T21:14:24.349Z,37.65
2023-04-20T21:16:51.096Z,35.88
2023-04-20T21:19:18.174Z,35.42
2023-04-20T21:21:45.028Z,36.33
2023-04-20T21:24:11.774Z,34.72
2023-04-20T21:26:38.454Z,36.35
2023-04-20T21:29:05.819Z,34.35
2023-04-20T21:31:33.056Z,33.80
2023-04-20T21:33:59.976Z,36.08
2023-04-20T21:36:27.952Z,36.85
2023-04-20T21:38:55.149Z,39.03
2023-04-20T21:41:21.895Z,37.63
2023-04-20T21:43:48.619Z,34.80
2023-04-20T21:46:15.878Z,39.97
2023-04-20T21:48:42.731Z,39.97
2023-04-20T21:51:14.217Z,37.22
2023-04-20T21:53:41.089Z,38.22
2023-04-20T21:56:07.722Z,35.25
2023-04-20T21:58:34.600Z,37.15
2023-04-20T22:01:01.391Z,36.63
2023-04-20T22:03:31.482Z,38.25
2023-04-20T22:05:59.029Z,36.60
2023-04-20T22:08:25.836Z,40.50
2023-04-20T22:10:52.575Z,42.35
2023-04-20T22:13:20.031Z,42.65
2023-04-20T22:15:47.583Z,41.85
2023-04-20T22:18:14.426Z,43.22
2023-04-20T22:20:41.080Z,43.72
2023-04-20T22:23:07.695Z,44.63
2023-04-20T22:25:34.398Z,44.05
2023-04-20T22:28:01.060Z,42.67
2023-04-20T22:30:27.872Z,41.53
2023-04-20T22:32:54.546Z,45.58
2023-04-20T22:35:21.236Z,44.13
2023-04-20T22:37:47.899Z,42.97
2023-04-20T22:40:14.721Z,45.85
2023-04-20T22:42:41.431Z,44.80
2023-04-20T22:45:10.948Z,43.63
2023-04-20T22:50:06.189Z,41.72
2023-04-20T22:52:32.795Z,44.28
2023-04-20T22:55:00.379Z,43.70
2023-04-20T22:57:26.974Z,46.65
2023-04-20T22:59:53.648Z,47.25
2023-04-20T23:02:20.286Z,46.05
2023-04-20T23:04:47.382Z,47.05
2023-04-20T23:07:13.985Z,48.58
2023-04-20T23:09:41.454Z,46.85
2023-04-20T23:12:11.696Z,45.47
2023-04-20T23:14:42.416Z,44.17
2023-04-20T23:17:10.367Z,44.13
2023-04-20T23:19:38.561Z,41.65
2023-04-20T23:22:08.820Z,41.28
2023-04-20T23:24:35.790Z,44.53
2023-04-20T23:27:02.733Z,43.10
2023-04-20T23:29:29.454Z,44.60
2023-04-20T23:31:56.202Z,45.00
2023-04-20T23:34:22.870Z,43.88
2023-04-20T23:36:50.606Z,44.08
2023-04-20T23:39:17.773Z,46.35
2023-04-20T23:41:44.993Z,43.92
2023-04-20T23:44:11.770Z,44.63
2023-04-20T23:46:38.943Z,43.25
2023-04-20T23:49:05.672Z,43.60
2023-04-20T23:51:32.427Z,42.65
2023-04-20T23:53:59.040Z,44.95
2023-04-20T23:56:25.994Z,45.05
2023-04-20T23:58:52.540Z,44.70
